Time;durP1;ratioP1;P1;durP2;ratioP2;P2;SDS_P1;SDS_P2;PMS_P1;PMS_P2;Temp;Humidity;BMP_temperature;BMP_pressure;BME280_temperature;BME280_humidity;BME280_pressure;Samples;Min_cycle;Max_cycle;Signal;HPM_P1;HPM_P2
2022/08/10 00:01:11;;;;;;;15.93;8.43;;;;;;;;;;3375894;42;20108;-59
2022/08/10 00:03:42;;;;;;;18.98;8.75;;;;;;;;;;3376098;42;20559;-59
2022/08/10 00:06:13;;;;;;;15.05;8.32;;;;;;;;;;3372097;42;20172;-58
2022/08/10 00:08:44;;;;;;;18.17;8.43;;;;;;;;;;3376161;42;20462;-58
2022/08/10 00:11:15;;;;;;;18.23;8.50;;;;;;;;;;3375760;42;20083;-58
2022/08/10 00:13:47;;;;;;;16.40;8.77;;;;;;;;;;3367007;42;20165;-57
2022/08/10 00:16:18;;;;;;;16.42;8.70;;;;;;;;;;3382735;42;20089;-61
2022/08/10 00:18:49;;;;;;;16.42;8.60;;;;;;;;;;3376126;42;20086;-57
2022/08/10 00:21:20;;;;;;;16.83;8.87;;;;;;;;;;3376137;42;20551;-58
2022/08/10 00:23:51;;;;;;;19.42;8.80;;;;;;;;;;3371523;42;20095;-57
2022/08/10 00:26:22;;;;;;;17.95;8.70;;;;;;;;;;3375809;42;20094;-59
2022/08/10 00:28:53;;;;;;;17.42;8.88;;;;;;;;;;3376019;42;20095;-57
2022/08/10 00:31:25;;;;;;;16.75;8.75;;;;;;;;;;3373935;42;20095;-59
2022/08/10 00:33:56;;;;;;;17.97;8.60;;;;;;;;;;3371364;42;20106;-58
2022/08/10 00:36:27;;;;;;;18.27;8.43;;;;;;;;;;3368667;42;20114;-57
2022/08/10 00:38:58;;;;;;;16.40;8.50;;;;;;;;;;3374321;42;20088;-57
2022/08/10 00:41:29;;;;;;;17.50;8.45;;;;;;;;;;3380982;42;20565;-60
2022/08/10 00:44:00;;;;;;;19.73;9.18;;;;;;;;;;3373909;42;20134;-56
2022/08/10 00:46:32;;;;;;;17.73;8.70;;;;;;;;;;3375479;42;20105;-57
2022/08/10 00:49:03;;;;;;;16.13;8.32;;;;;;;;;;3375532;42;20138;-59
2022/08/10 00:51:34;;;;;;;16.95;8.55;;;;;;;;;;3366751;42;20215;-57
2022/08/10 00:54:05;;;;;;;15.57;7.93;;;;;;;;;;3368522;42;20168;-60
2022/08/10 00:56:36;;;;;;;16.33;8.30;;;;;;;;;;3368430;42;20093;-56
2022/08/10 00:59:07;;;;;;;19.80;8.63;;;;;;;;;;3373669;42;20221;-58
2022/08/10 01:01:39;;;;;;;16.50;8.65;;;;;;;;;;3373962;42;20156;-57
2022/08/10 01:04:10;;;;;;;15.60;8.35;;;;;;;;;;3375509;42;20103;-56
2022/08/10 01:07:22;;;;;;;17.20;8.48;;;;;;;;;;3382582;42;20090;-59
2022/08/10 01:10:03;;;;;;;16.70;8.80;;;;;;;;;;3376332;42;20508;-57
2022/08/10 01:12:49;;;;;;;16.47;8.30;;;;;;;;;;3359620;42;20106;-58
2022/08/10 01:16:01;;;;;;;18.35;8.68;;;;;;;;;;3372275;42;20095;-57
2022/08/10 01:19:08;;;;;;;16.65;8.77;;;;;;;;;;3359843;42;20333;-57
2022/08/10 01:22:02;;;;;;;15.52;7.93;;;;;;;;;;3365180;42;20097;-58
2022/08/10 01:24:34;;;;;;;15.80;8.80;;;;;;;;;;3374824;42;20588;-58
2022/08/10 01:27:31;;;;;;;16.77;8.67;;;;;;;;;;3375228;42;20193;-58
2022/08/10 01:30:10;;;;;;;17.23;8.38;;;;;;;;;;3359123;42;20557;-58
2022/08/10 01:32:49;;;;;;;16.17;8.38;;;;;;;;;;3382241;42;20553;-57
2022/08/10 01:35:32;;;;;;;18.08;8.65;;;;;;;;;;3362835;42;20095;-57
2022/08/10 01:38:10;;;;;;;19.52;8.40;;;;;;;;;;3379903;42;20099;-58
2022/08/10 01:40:45;;;;;;;15.07;8.70;;;;;;;;;;3368317;42;20086;-57
2022/08/10 01:43:17;;;;;;;17.20;8.50;;;;;;;;;;3374800;42;20087;-59
2022/08/10 01:45:51;;;;;;;17.80;8.38;;;;;;;;;;3364614;42;20636;-60
2022/08/10 01:48:49;;;;;;;17.98;8.88;;;;;;;;;;3367857;42;20092;-59
2022/08/10 01:51:24;;;;;;;15.02;7.97;;;;;;;;;;3372250;42;20132;-57
2022/08/10 01:53:58;;;;;;;16.57;8.47;;;;;;;;;;3368124;42;20091;-57
2022/08/10 01:56:30;;;;;;;16.38;8.55;;;;;;;;;;3360956;42;20093;-57
2022/08/10 01:59:06;;;;;;;16.27;8.50;;;;;;;;;;3361072;42;20139;-57
2022/08/10 02:01:40;;;;;;;17.83;8.40;;;;;;;;;;3361233;42;20094;-59
2022/08/10 02:04:11;;;;;;;17.45;8.35;;;;;;;;;;3367815;42;20091;-56
2022/08/10 02:06:45;;;;;;;18.87;8.60;;;;;;;;;;3367879;42;20117;-57
2022/08/10 02:09:27;;;;;;;15.45;8.52;;;;;;;;;;3361051;42;20101;-57
2022/08/10 02:12:02;;;;;;;15.98;8.55;;;;;;;;;;3375141;42;20157;-60
2022/08/10 02:14:44;;;;;;;14.40;8.60;;;;;;;;;;3359246;42;20169;-62
2022/08/10 02:17:46;;;;;;;16.75;8.48;;;;;;;;;;3373137;42;20095;-58
2022/08/10 02:20:25;;;;;;;16.37;8.80;;;;;;;;;;3364927;42;20109;-58
2022/08/10 02:22:58;;;;;;;15.65;8.73;;;;;;;;;;3367924;42;20103;-58
2022/08/10 02:25:29;;;;;;;15.25;8.60;;;;;;;;;;3367736;42;20599;-58
2022/08/10 02:28:02;;;;;;;16.27;8.82;;;;;;;;;;3366444;42;20100;-58
2022/08/10 02:30:33;;;;;;;20.60;9.50;;;;;;;;;;3373981;42;20157;-58
2022/08/10 02:33:04;;;;;;;15.87;8.93;;;;;;;;;;3373183;42;20168;-59
2022/08/10 02:35:35;;;;;;;16.92;9.00;;;;;;;;;;3372519;42;20103;-59
2022/08/10 02:38:07;;;;;;;19.38;9.00;;;;;;;;;;3366344;42;20095;-57
2022/08/10 02:40:40;;;;;;;15.07;8.68;;;;;;;;;;3367506;42;20248;-59
2022/08/10 02:43:24;;;;;;;15.52;9.10;;;;;;;;;;3366222;42;20087;-60
2022/08/10 02:46:03;;;;;;;15.97;9.00;;;;;;;;;;3361150;42;20091;-57
2022/08/10 02:48:40;;;;;;;15.50;8.55;;;;;;;;;;3375663;42;20098;-58
2022/08/10 02:51:20;;;;;;;16.20;8.90;;;;;;;;;;3367869;42;20163;-60
2022/08/10 02:53:52;;;;;;;17.55;9.07;;;;;;;;;;3358848;42;20103;-59
2022/08/10 02:56:41;;;;;;;14.98;8.65;;;;;;;;;;3374410;42;20213;-58
2022/08/10 02:59:28;;;;;;;15.83;9.13;;;;;;;;;;3375934;42;20087;-58
2022/08/10 03:02:02;;;;;;;19.52;9.70;;;;;;;;;;3375578;42;20105;-59
2022/08/10 03:04:40;;;;;;;18.13;9.52;;;;;;;;;;3369166;42;20098;-58
2022/08/10 03:07:13;;;;;;;20.55;9.90;;;;;;;;;;3369315;42;20496;-60
2022/08/10 03:09:45;;;;;;;17.05;10.13;;;;;;;;;;3367215;42;20110;-58
2022/08/10 03:12:16;;;;;;;21.40;9.20;;;;;;;;;;3372924;42;20091;-60
2022/08/10 03:14:47;;;;;;;21.15;9.38;;;;;;;;;;3367833;42;20101;-60
2022/08/10 03:17:18;;;;;;;16.27;9.40;;;;;;;;;;3369450;42;20094;-59
2022/08/10 03:19:49;;;;;;;19.08;10.15;;;;;;;;;;3369282;42;20205;-60
2022/08/10 03:22:21;;;;;;;16.60;10.43;;;;;;;;;;3369410;42;20562;-57
2022/08/10 03:24:52;;;;;;;17.03;10.13;;;;;;;;;;3374624;42;20512;-60
2022/08/10 03:27:23;;;;;;;17.27;10.35;;;;;;;;;;3374494;42;20286;-59
2022/08/10 03:29:54;;;;;;;18.55;11.10;;;;;;;;;;3367850;42;20118;-60
2022/08/10 03:32:26;;;;;;;25.38;10.95;;;;;;;;;;3369416;42;20106;-59
2022/08/10 03:34:57;;;;;;;19.27;11.07;;;;;;;;;;3367569;42;20091;-60
2022/08/10 03:37:28;;;;;;;20.43;11.33;;;;;;;;;;3362189;42;20137;-59
2022/08/10 03:39:59;;;;;;;19.58;10.63;;;;;;;;;;3369123;42;20091;-58
2022/08/10 03:42:31;;;;;;;21.83;11.18;;;;;;;;;;3367444;42;20360;-60
2022/08/10 03:45:03;;;;;;;19.50;10.93;;;;;;;;;;3375224;42;20109;-60
2022/08/10 03:47:36;;;;;;;19.60;11.95;;;;;;;;;;3372436;42;20091;-59
2022/08/10 03:50:07;;;;;;;20.33;10.87;;;;;;;;;;3365621;42;20147;-60
2022/08/10 03:52:38;;;;;;;17.80;10.63;;;;;;;;;;3370296;42;20599;-60
2022/08/10 03:55:10;;;;;;;18.75;10.63;;;;;;;;;;3376269;42;20485;-60
2022/08/10 03:57:41;;;;;;;21.20;10.82;;;;;;;;;;3364324;42;20105;-60
2022/08/10 04:00:17;;;;;;;17.98;10.55;;;;;;;;;;3368610;42;20106;-60
2022/08/10 04:02:48;;;;;;;22.07;11.00;;;;;;;;;;3369089;42;20124;-62
2022/08/10 04:05:19;;;;;;;19.48;11.43;;;;;;;;;;3361728;42;20107;-59
2022/08/10 04:07:50;;;;;;;20.40;10.90;;;;;;;;;;3375506;42;20578;-52
2022/08/10 04:10:22;;;;;;;21.27;10.77;;;;;;;;;;3368977;42;20091;-55
2022/08/10 04:12:53;;;;;;;21.15;11.38;;;;;;;;;;3375205;42;20091;-56
2022/08/10 04:15:24;;;;;;;20.20;10.20;;;;;;;;;;3374639;42;20096;-56
2022/08/10 04:17:56;;;;;;;22.48;10.85;;;;;;;;;;3382771;42;20102;-56
2022/08/10 04:20:31;;;;;;;18.15;10.95;;;;;;;;;;3367110;42;20103;-52
2022/08/10 04:23:10;;;;;;;15.50;10.05;;;;;;;;;;3373530;42;20099;-56
2022/08/10 04:25:41;;;;;;;17.65;10.00;;;;;;;;;;3368747;42;20165;-53
2022/08/10 04:28:12;;;;;;;19.00;9.63;;;;;;;;;;3368601;42;20110;-57
2022/08/10 04:30:43;;;;;;;22.98;9.80;;;;;;;;;;3373399;42;20095;-58
2022/08/10 04:33:16;;;;;;;19.38;10.00;;;;;;;;;;3375508;42;20146;-57
2022/08/10 04:35:48;;;;;;;17.85;9.60;;;;;;;;;;3361303;42;20588;-55
2022/08/10 04:38:19;;;;;;;18.85;9.40;;;;;;;;;;3368116;42;20550;-58
2022/08/10 04:40:50;;;;;;;14.73;9.27;;;;;;;;;;3368505;42;20138;-57
2022/08/10 04:43:21;;;;;;;15.60;9.00;;;;;;;;;;3367074;42;20117;-56
2022/08/10 04:45:53;;;;;;;15.70;9.90;;;;;;;;;;3367213;42;20099;-55
2022/08/10 04:48:24;;;;;;;14.88;10.10;;;;;;;;;;3373776;42;20543;-57
2022/08/10 04:50:55;;;;;;;18.60;9.60;;;;;;;;;;3380900;42;20178;-55
2022/08/10 04:53:27;;;;;;;19.63;9.83;;;;;;;;;;3373635;42;20087;-56
2022/08/10 04:55:58;;;;;;;18.73;9.82;;;;;;;;;;3371234;42;20118;-57
2022/08/10 04:58:29;;;;;;;19.77;10.35;;;;;;;;;;3381930;42;20586;-55
2022/08/10 05:01:01;;;;;;;19.38;9.98;;;;;;;;;;3371665;42;20083;-56
2022/08/10 05:03:32;;;;;;;19.15;9.90;;;;;;;;;;3372207;42;20134;-56
2022/08/10 05:06:03;;;;;;;23.07;10.63;;;;;;;;;;3374810;42;20568;-52
2022/08/10 05:08:34;;;;;;;20.00;9.77;;;;;;;;;;3373010;42;20144;-56
2022/08/10 05:11:06;;;;;;;18.17;10.10;;;;;;;;;;3382183;42;20087;-56
2022/08/10 05:13:37;;;;;;;23.90;10.43;;;;;;;;;;3373480;42;20100;-56
2022/08/10 05:16:08;;;;;;;21.70;10.30;;;;;;;;;;3372796;42;20099;-56
2022/08/10 05:18:39;;;;;;;21.13;10.27;;;;;;;;;;3374602;42;20154;-58
2022/08/10 05:21:10;;;;;;;16.13;9.48;;;;;;;;;;3375422;42;20091;-54
2022/08/10 05:23:41;;;;;;;16.80;10.18;;;;;;;;;;3373212;42;20091;-54
2022/08/10 05:26:13;;;;;;;19.38;9.93;;;;;;;;;;3375269;42;20098;-54
2022/08/10 05:28:44;;;;;;;19.38;9.63;;;;;;;;;;3368308;42;20105;-59
2022/08/10 05:31:15;;;;;;;16.90;9.13;;;;;;;;;;3375327;42;20185;-58
2022/08/10 05:33:46;;;;;;;15.70;9.27;;;;;;;;;;3375163;42;20091;-55
2022/08/10 05:36:18;;;;;;;18.92;9.30;;;;;;;;;;3376225;42;20101;-57
2022/08/10 05:38:49;;;;;;;13.23;8.65;;;;;;;;;;3366356;42;20114;-56
2022/08/10 05:41:20;;;;;;;14.43;9.00;;;;;;;;;;3372632;42;20615;-56
2022/08/10 05:43:51;;;;;;;14.43;9.00;;;;;;;;;;3365366;42;20106;-57
2022/08/10 05:46:22;;;;;;;15.20;9.50;;;;;;;;;;3374750;42;20102;-57
2022/08/10 05:48:54;;;;;;;14.65;9.38;;;;;;;;;;3374360;42;20090;-58
2022/08/10 05:51:25;;;;;;;15.35;9.43;;;;;;;;;;3368128;42;20102;-54
2022/08/10 05:53:56;;;;;;;17.73;9.07;;;;;;;;;;3367669;42;20099;-55
2022/08/10 05:56:28;;;;;;;13.63;9.27;;;;;;;;;;3375149;42;20105;-56
2022/08/10 05:58:59;;;;;;;14.05;9.23;;;;;;;;;;3366847;42;20203;-56
2022/08/10 06:01:30;;;;;;;16.67;9.30;;;;;;;;;;3374924;42;20098;-56
2022/08/10 06:04:01;;;;;;;16.38;9.38;;;;;;;;;;3355051;42;20637;-57
2022/08/10 06:06:32;;;;;;;14.95;9.77;;;;;;;;;;3375388;42;20091;-57
2022/08/10 06:09:04;;;;;;;19.60;10.20;;;;;;;;;;3359058;42;20154;-57
2022/08/10 06:11:35;;;;;;;19.02;10.32;;;;;;;;;;3367867;42;20091;-56
2022/08/10 06:16:56;;;;;;;17.30;9.65;;;;;;;;;;3374791;42;20108;-56
2022/08/10 06:19:27;;;;;;;14.68;8.95;;;;;;;;;;3368159;42;20097;-57
2022/08/10 06:22:00;;;;;;;13.30;8.30;;;;;;;;;;3366673;42;20532;-57
2022/08/10 06:24:35;;;;;;;12.88;7.85;;;;;;;;;;3370411;42;20512;-57
2022/08/10 06:27:06;;;;;;;15.73;7.40;;;;;;;;;;3371995;42;20091;-58
2022/08/10 06:29:40;;;;;;;12.57;7.72;;;;;;;;;;3371979;42;20114;-56
2022/08/10 06:32:11;;;;;;;11.50;7.60;;;;;;;;;;3362472;42;20095;-57
2022/08/10 06:34:47;;;;;;;15.37;7.80;;;;;;;;;;3353501;42;20833;-56
2022/08/10 06:37:18;;;;;;;17.55;8.38;;;;;;;;;;3370078;42;20091;-56
2022/08/10 06:39:49;;;;;;;13.02;8.10;;;;;;;;;;3367082;42;20087;-57
2022/08/10 06:42:39;;;;;;;15.18;8.00;;;;;;;;;;3366823;42;20152;-52
2022/08/10 06:45:12;;;;;;;34.47;10.90;;;;;;;;;;3375148;42;20155;-54
2022/08/10 06:48:03;;;;;;;16.13;8.20;;;;;;;;;;3369941;42;20638;-56
2022/08/10 06:50:38;;;;;;;13.10;7.88;;;;;;;;;;3369809;42;20095;-55
2022/08/10 06:53:31;;;;;;;13.95;8.20;;;;;;;;;;3366007;42;20099;-61
2022/08/10 06:56:10;;;;;;;12.25;7.82;;;;;;;;;;3366046;42;20106;-55
2022/08/10 06:58:47;;;;;;;12.55;8.27;;;;;;;;;;3350267;42;20092;-53
2022/08/10 07:01:20;;;;;;;11.00;7.30;;;;;;;;;;3365404;42;20095;-58
2022/08/10 07:03:58;;;;;;;12.50;7.60;;;;;;;;;;3359135;42;20562;-56
2022/08/10 07:06:30;;;;;;;13.38;7.75;;;;;;;;;;3359052;42;20113;-52
2022/08/10 07:09:01;;;;;;;13.63;8.30;;;;;;;;;;3365762;42;20107;-55
2022/08/10 07:11:32;;;;;;;13.05;7.97;;;;;;;;;;3372877;42;20512;-56
2022/08/10 07:14:03;;;;;;;13.37;7.63;;;;;;;;;;3364280;42;20191;-55
2022/08/10 07:16:34;;;;;;;13.00;7.78;;;;;;;;;;3349216;42;20088;-56
2022/08/10 07:19:06;;;;;;;13.60;7.50;;;;;;;;;;3363656;42;20501;-54
2022/08/10 07:21:42;;;;;;;11.32;7.72;;;;;;;;;;3357733;42;20107;-56
2022/08/10 07:24:13;;;;;;;12.38;8.15;;;;;;;;;;3342999;42;20185;-56
2022/08/10 07:26:49;;;;;;;11.77;7.70;;;;;;;;;;3363189;42;20128;-54
2022/08/10 07:29:20;;;;;;;13.85;7.78;;;;;;;;;;3357220;42;20083;-55
2022/08/10 07:31:51;;;;;;;13.48;8.05;;;;;;;;;;3358735;42;20104;-58
2022/08/10 07:34:23;;;;;;;14.55;7.45;;;;;;;;;;3359023;42;20585;-52
2022/08/10 07:36:55;;;;;;;15.90;7.80;;;;;;;;;;3350959;42;20161;-57
2022/08/10 07:39:28;;;;;;;13.07;8.53;;;;;;;;;;3353560;42;20093;-57
2022/08/10 07:41:59;;;;;;;13.43;8.25;;;;;;;;;;3364049;42;20163;-54
2022/08/10 07:44:30;;;;;;;17.52;8.38;;;;;;;;;;3355573;42;20130;-57
2022/08/10 07:47:02;;;;;;;11.48;7.90;;;;;;;;;;3362506;42;20088;-59
2022/08/10 07:49:36;;;;;;;15.57;8.30;;;;;;;;;;3355938;42;20445;-57
2022/08/10 07:52:07;;;;;;;10.77;7.73;;;;;;;;;;3364774;42;20095;-57
2022/08/10 07:54:44;;;;;;;12.65;7.72;;;;;;;;;;3373191;42;20497;-52
2022/08/10 07:57:24;;;;;;;11.25;8.05;;;;;;;;;;3363860;42;20087;-55
2022/08/10 07:59:57;;;;;;;13.38;8.00;;;;;;;;;;3359195;42;20114;-54
2022/08/10 08:02:31;;;;;;;12.50;7.88;;;;;;;;;;3365314;42;20457;-57
2022/08/10 08:05:06;;;;;;;10.90;7.57;;;;;;;;;;3358596;42;20156;-55
2022/08/10 08:07:38;;;;;;;14.02;7.45;;;;;;;;;;3361723;42;20087;-54
2022/08/10 08:10:10;;;;;;;10.77;7.82;;;;;;;;;;3365519;42;20107;-54
2022/08/10 08:12:41;;;;;;;12.75;7.25;;;;;;;;;;3363327;42;20557;-54
2022/08/10 08:15:14;;;;;;;13.40;7.60;;;;;;;;;;3364975;42;20101;-53
2022/08/10 08:17:47;;;;;;;11.83;7.70;;;;;;;;;;3363211;42;20104;-55
2022/08/10 08:20:18;;;;;;;11.45;8.05;;;;;;;;;;3370991;42;20092;-54
2022/08/10 08:22:49;;;;;;;12.30;7.30;;;;;;;;;;3371401;42;20620;-54
2022/08/10 08:25:21;;;;;;;10.60;7.28;;;;;;;;;;3372619;42;20114;-54
2022/08/10 08:27:54;;;;;;;11.77;7.72;;;;;;;;;;3365524;42;20095;-56
2022/08/10 08:30:25;;;;;;;13.93;7.80;;;;;;;;;;3365066;42;20625;-57
2022/08/10 08:33:18;;;;;;;11.88;7.60;;;;;;;;;;3372328;42;20140;-57
2022/08/10 08:35:50;;;;;;;14.13;7.80;;;;;;;;;;3369839;42;20157;-50
2022/08/10 08:38:21;;;;;;;12.45;7.00;;;;;;;;;;3371821;42;20171;-56
2022/08/10 08:41:21;;;;;;;10.73;7.43;;;;;;;;;;3357836;42;20573;-56
2022/08/10 08:44:20;;;;;;;15.10;7.70;;;;;;;;;;3378962;42;20561;-59
2022/08/10 08:46:57;;;;;;;16.15;7.68;;;;;;;;;;3366768;42;20098;-57
2022/08/10 08:49:53;;;;;;;11.60;7.50;;;;;;;;;;3373668;42;20151;-59
2022/08/10 08:52:32;;;;;;;13.30;7.75;;;;;;;;;;3370841;42;20643;-55
2022/08/10 08:55:22;;;;;;;11.57;7.35;;;;;;;;;;3363001;42;20107;-56
2022/08/10 08:58:15;;;;;;;11.80;7.03;;;;;;;;;;3353066;42;20139;-55
2022/08/10 09:00:54;;;;;;;11.82;7.40;;;;;;;;;;3357332;42;20083;-56
2022/08/10 09:04:03;;;;;;;10.80;7.25;;;;;;;;;;3361407;42;20088;-55
2022/08/10 09:06:46;;;;;;;11.32;7.53;;;;;;;;;;3367921;42;20206;-56
2022/08/10 09:09:50;;;;;;;12.52;7.10;;;;;;;;;;3350849;42;20640;-55
2022/08/10 09:12:30;;;;;;;12.97;8.83;;;;;;;;;;3361501;42;20088;-56
2022/08/10 09:15:08;;;;;;;12.75;8.30;;;;;;;;;;3364731;42;20107;-55
2022/08/10 09:17:51;;;;;;;13.65;8.93;;;;;;;;;;3364794;42;20075;-53
2022/08/10 09:20:46;;;;;;;13.38;8.75;;;;;;;;;;3360291;42;20121;-56
2022/08/10 09:23:47;;;;;;;13.23;8.88;;;;;;;;;;3354120;42;20134;-56
2022/08/10 09:26:20;;;;;;;13.77;8.43;;;;;;;;;;3356792;42;20080;-56
2022/08/10 09:28:53;;;;;;;14.15;8.15;;;;;;;;;;3359913;42;20088;-53
2022/08/10 09:31:24;;;;;;;12.70;8.30;;;;;;;;;;3352549;42;20091;-56
2022/08/10 09:34:11;;;;;;;16.83;8.77;;;;;;;;;;3351427;42;20156;-56
2022/08/10 09:37:12;;;;;;;14.23;8.18;;;;;;;;;;3360730;42;20099;-55
2022/08/10 09:39:52;;;;;;;14.23;8.50;;;;;;;;;;3362880;42;20100;-56
2022/08/10 09:42:24;;;;;;;13.35;8.30;;;;;;;;;;3357156;42;20524;-54
2022/08/10 09:45:03;;;;;;;13.88;8.60;;;;;;;;;;3357312;42;20167;-56
2022/08/10 09:48:29;;;;;;;12.90;8.68;;;;;;;;;;3359808;42;20091;-57
2022/08/10 09:51:06;;;;;;;13.27;8.70;;;;;;;;;;3332922;42;20088;-57
2022/08/10 09:53:42;;;;;;;15.47;8.80;;;;;;;;;;3374427;42;20169;-56
2022/08/10 09:56:31;;;;;;;14.15;8.60;;;;;;;;;;3364277;42;20172;-58
2022/08/10 09:59:09;;;;;;;17.10;8.90;;;;;;;;;;3370880;42;20553;-57
2022/08/10 10:01:42;;;;;;;14.40;8.63;;;;;;;;;;3372293;42;20169;-56
2022/08/10 10:04:27;;;;;;;14.88;9.25;;;;;;;;;;3360642;42;20088;-54
2022/08/10 10:07:00;;;;;;;13.80;9.03;;;;;;;;;;3363669;42;20084;-57
2022/08/10 10:09:33;;;;;;;17.80;9.13;;;;;;;;;;3370449;42;20547;-55
2022/08/10 10:12:20;;;;;;;18.02;9.38;;;;;;;;;;3373357;42;20547;-58
2022/08/10 10:15:19;;;;;;;13.00;8.18;;;;;;;;;;3376275;42;20091;-55
2022/08/10 10:18:27;;;;;;;13.63;9.18;;;;;;;;;;3372698;42;20088;-57
2022/08/10 10:21:10;;;;;;;13.90;9.03;;;;;;;;;;3374097;42;20091;-56
2022/08/10 10:24:20;;;;;;;16.55;8.60;;;;;;;;;;3368016;42;20106;-54
2022/08/10 10:27:18;;;;;;;15.95;8.68;;;;;;;;;;3373987;42;20098;-55
2022/08/10 10:30:04;;;;;;;14.32;8.82;;;;;;;;;;3368321;42;20095;-56
2022/08/10 10:32:45;;;;;;;15.25;8.95;;;;;;;;;;3375121;42;20091;-55
2022/08/10 10:35:28;;;;;;;15.43;8.87;;;;;;;;;;3362193;42;20746;-57
2022/08/10 10:38:00;;;;;;;13.27;8.80;;;;;;;;;;3360960;42;20099;-55
2022/08/10 10:40:53;;;;;;;14.70;8.80;;;;;;;;;;3367548;42;20134;-52
2022/08/10 10:43:42;;;;;;;15.18;9.13;;;;;;;;;;3372637;42;20571;-54
2022/08/10 10:46:22;;;;;;;14.48;8.70;;;;;;;;;;3371706;42;20109;-56
2022/08/10 10:49:02;;;;;;;13.37;8.80;;;;;;;;;;3368383;42;20128;-59
2022/08/10 10:51:57;;;;;;;14.88;8.80;;;;;;;;;;3369116;42;20150;-54
2022/08/10 10:54:43;;;;;;;12.75;8.57;;;;;;;;;;3375696;42;20127;-56
2022/08/10 10:57:17;;;;;;;14.27;8.73;;;;;;;;;;3368550;42;20095;-56
2022/08/10 11:00:07;;;;;;;15.35;8.52;;;;;;;;;;3377591;42;20110;-57
2022/08/10 11:03:05;;;;;;;14.97;8.33;;;;;;;;;;3376644;42;20189;-56
2022/08/10 11:05:56;;;;;;;12.70;8.27;;;;;;;;;;3368649;42;20703;-59
2022/08/10 11:08:34;;;;;;;15.00;8.43;;;;;;;;;;3368125;42;20139;-52
2022/08/10 11:11:10;;;;;;;14.73;8.10;;;;;;;;;;3370202;42;20083;-57
2022/08/10 11:14:04;;;;;;;14.02;8.35;;;;;;;;;;3362269;42;20209;-54
2022/08/10 11:16:42;;;;;;;14.13;8.03;;;;;;;;;;3363998;42;20113;-55
2022/08/10 11:19:19;;;;;;;12.57;7.25;;;;;;;;;;3377473;42;20095;-53
2022/08/10 11:22:11;;;;;;;12.10;7.28;;;;;;;;;;3378368;42;20126;-59
2022/08/10 11:25:23;;;;;;;13.13;8.10;;;;;;;;;;3369974;42;20102;-56
2022/08/10 11:28:11;;;;;;;14.10;7.90;;;;;;;;;;3352120;42;20960;-57
2022/08/10 11:31:21;;;;;;;12.73;7.47;;;;;;;;;;3377538;42;20086;-55
2022/08/10 11:34:03;;;;;;;14.68;7.78;;;;;;;;;;3364293;42;20105;-52
2022/08/10 11:36:41;;;;;;;11.05;7.70;;;;;;;;;;3368656;42;20095;-55
2022/08/10 11:39:20;;;;;;;13.90;7.47;;;;;;;;;;3373096;42;20095;-58
2022/08/10 11:41:57;;;;;;;11.48;7.50;;;;;;;;;;3367494;42;20138;-59
2022/08/10 11:44:48;;;;;;;11.10;6.83;;;;;;;;;;3358061;42;20653;-57
2022/08/10 11:47:22;;;;;;;12.05;6.70;;;;;;;;;;3368225;42;20094;-54
2022/08/10 11:50:01;;;;;;;10.30;7.13;;;;;;;;;;3374307;42;20473;-59
2022/08/10 11:52:37;;;;;;;12.13;7.00;;;;;;;;;;3371389;42;20469;-56
2022/08/10 11:55:22;;;;;;;11.48;6.82;;;;;;;;;;3368590;42;20575;-57
2022/08/10 11:57:59;;;;;;;12.43;7.00;;;;;;;;;;3376151;42;20103;-58
2022/08/10 12:00:31;;;;;;;12.05;6.68;;;;;;;;;;3369271;42;20117;-58
2022/08/10 12:03:02;;;;;;;10.93;6.70;;;;;;;;;;3367365;42;20572;-59
2022/08/10 12:05:36;;;;;;;11.27;6.35;;;;;;;;;;3376369;42;20658;-58
2022/08/10 12:08:07;;;;;;;11.63;6.38;;;;;;;;;;3370112;42;20113;-59
2022/08/10 12:10:38;;;;;;;14.80;6.60;;;;;;;;;;3361754;42;20619;-57
2022/08/10 12:13:30;;;;;;;9.63;6.30;;;;;;;;;;3368932;42;20151;-58
2022/08/10 12:16:14;;;;;;;10.52;6.53;;;;;;;;;;3368557;42;20481;-57
2022/08/10 12:18:58;;;;;;;10.07;5.93;;;;;;;;;;3374399;42;20095;-58
2022/08/10 12:21:40;;;;;;;11.63;6.43;;;;;;;;;;3367342;42;20584;-57
2022/08/10 12:24:17;;;;;;;11.10;6.23;;;;;;;;;;3374499;42;20609;-56
2022/08/10 12:27:32;;;;;;;11.32;5.95;;;;;;;;;;3377049;42;20561;-58
2022/08/10 12:30:08;;;;;;;10.20;6.22;;;;;;;;;;3369731;42;20134;-58
2022/08/10 12:32:59;;;;;;;12.25;6.10;;;;;;;;;;3366949;42;20101;-58
2022/08/10 12:35:37;;;;;;;14.68;6.53;;;;;;;;;;3372510;42;20095;-57
2022/08/10 12:38:15;;;;;;;11.10;6.20;;;;;;;;;;3374009;42;20161;-57
2022/08/10 12:41:02;;;;;;;12.95;6.40;;;;;;;;;;3367960;42;20116;-58
2022/08/10 12:43:41;;;;;;;10.85;6.15;;;;;;;;;;3360872;42;20192;-58
2022/08/10 12:46:20;;;;;;;12.85;5.93;;;;;;;;;;3366637;42;20525;-60
2022/08/10 12:49:18;;;;;;;10.38;6.03;;;;;;;;;;3375590;42;20098;-56
2022/08/10 12:51:52;;;;;;;10.57;5.87;;;;;;;;;;3367068;42;20102;-55
2022/08/10 12:54:23;;;;;;;11.18;6.13;;;;;;;;;;3366978;42;20091;-53
2022/08/10 12:57:04;;;;;;;10.35;5.90;;;;;;;;;;3365916;42;20095;-58
2022/08/10 12:59:40;;;;;;;11.75;6.28;;;;;;;;;;3375138;42;20134;-59
2022/08/10 13:02:18;;;;;;;9.75;5.95;;;;;;;;;;3368221;42;20079;-56
2022/08/10 13:04:50;;;;;;;10.47;5.70;;;;;;;;;;3368075;42;20731;-58
2022/08/10 13:07:31;;;;;;;11.57;6.35;;;;;;;;;;3375400;42;20102;-58
2022/08/10 13:10:04;;;;;;;13.10;6.00;;;;;;;;;;3373348;42;20095;-56
2022/08/10 13:12:38;;;;;;;11.60;5.55;;;;;;;;;;3360156;42;20078;-58
2022/08/10 13:15:21;;;;;;;12.27;5.93;;;;;;;;;;3367992;42;20497;-58
2022/08/10 13:17:54;;;;;;;12.10;5.73;;;;;;;;;;3368370;42;20132;-61
2022/08/10 13:20:27;;;;;;;10.40;6.05;;;;;;;;;;3373234;42;20568;-57
2022/08/10 13:23:00;;;;;;;10.48;5.75;;;;;;;;;;3365676;42;20094;-58
2022/08/10 13:25:35;;;;;;;11.07;5.78;;;;;;;;;;3371457;42;20138;-58
2022/08/10 13:28:08;;;;;;;11.95;5.80;;;;;;;;;;3366973;42;20098;-58
2022/08/10 13:30:40;;;;;;;10.80;5.37;;;;;;;;;;3364607;42;20574;-58
2022/08/10 13:33:12;;;;;;;10.82;5.40;;;;;;;;;;3370195;42;20099;-59
2022/08/10 13:35:47;;;;;;;9.95;5.05;;;;;;;;;;3371205;42;20586;-57
2022/08/10 13:38:19;;;;;;;12.40;5.22;;;;;;;;;;3369648;42;20091;-58
2022/08/10 13:40:50;;;;;;;10.65;4.70;;;;;;;;;;3367585;42;20078;-58
2022/08/10 13:43:21;;;;;;;8.53;5.00;;;;;;;;;;3363608;42;20805;-59
2022/08/10 13:45:53;;;;;;;10.50;4.97;;;;;;;;;;3372310;42;20552;-60
2022/08/10 13:48:24;;;;;;;10.30;4.93;;;;;;;;;;3365383;42;20174;-58
2022/08/10 13:50:58;;;;;;;9.15;4.85;;;;;;;;;;3373260;42;20217;-58
2022/08/10 13:53:30;;;;;;;8.70;5.47;;;;;;;;;;3376771;42;20178;-55
2022/08/10 13:56:04;;;;;;;9.03;4.97;;;;;;;;;;3360600;42;20568;-62
2022/08/10 13:58:37;;;;;;;11.40;5.63;;;;;;;;;;3366899;42;20513;-59
2022/08/10 14:01:16;;;;;;;11.93;5.60;;;;;;;;;;3373189;42;20090;-56
2022/08/10 14:03:47;;;;;;;10.60;5.60;;;;;;;;;;3360098;42;20107;-59
2022/08/10 14:06:20;;;;;;;10.50;5.57;;;;;;;;;;3361227;42;20172;-58
2022/08/10 14:09:07;;;;;;;9.90;5.60;;;;;;;;;;3366285;42;20079;-59
2022/08/10 14:11:39;;;;;;;9.55;5.82;;;;;;;;;;3366155;42;20094;-58
2022/08/10 14:14:15;;;;;;;11.43;6.15;;;;;;;;;;3374941;42;20146;-57
2022/08/10 14:16:52;;;;;;;14.07;6.00;;;;;;;;;;3367854;42;20099;-59
2022/08/10 14:19:27;;;;;;;11.50;6.55;;;;;;;;;;3363453;42;20151;-56
2022/08/10 14:21:58;;;;;;;11.17;6.13;;;;;;;;;;3363667;42;20095;-58
2022/08/10 14:24:31;;;;;;;13.35;6.30;;;;;;;;;;3374765;42;20539;-59
2022/08/10 14:27:07;;;;;;;10.77;6.53;;;;;;;;;;3375447;42;20095;-58
2022/08/10 14:29:41;;;;;;;10.57;6.65;;;;;;;;;;3367940;42;20098;-59
2022/08/10 14:32:17;;;;;;;11.40;7.20;;;;;;;;;;3358985;42;20114;-59
2022/08/10 14:34:49;;;;;;;18.90;7.00;;;;;;;;;;3364122;42;20527;-59
2022/08/10 14:37:32;;;;;;;13.68;6.85;;;;;;;;;;3363444;42;20099;-58
2022/08/10 14:40:19;;;;;;;13.30;6.60;;;;;;;;;;3368612;42;20572;-58
2022/08/10 14:43:01;;;;;;;14.23;6.90;;;;;;;;;;3372704;42;20095;-61
2022/08/10 14:45:37;;;;;;;11.60;6.82;;;;;;;;;;3362371;42;20107;-59
2022/08/10 14:48:19;;;;;;;12.33;7.20;;;;;;;;;;3374883;42;20087;-59
2022/08/10 14:50:54;;;;;;;17.10;7.85;;;;;;;;;;3375001;42;20087;-58
2022/08/10 14:53:28;;;;;;;14.32;7.63;;;;;;;;;;3374296;42;20110;-59
2022/08/10 14:56:11;;;;;;;14.30;7.60;;;;;;;;;;3373159;42;20133;-59
2022/08/10 14:59:09;;;;;;;13.07;7.47;;;;;;;;;;3367638;42;20190;-58
2022/08/10 15:01:44;;;;;;;12.97;7.43;;;;;;;;;;3368976;42;20255;-58
2022/08/10 15:04:15;;;;;;;14.15;7.50;;;;;;;;;;3369532;42;20090;-56
2022/08/10 15:06:56;;;;;;;13.77;7.80;;;;;;;;;;3362481;42;20159;-58
2022/08/10 15:09:31;;;;;;;15.23;7.57;;;;;;;;;;3363474;42;20158;-59
2022/08/10 15:12:03;;;;;;;12.45;7.40;;;;;;;;;;3369251;42;20631;-57
2022/08/10 15:14:36;;;;;;;14.50;7.73;;;;;;;;;;3375554;42;20158;-58
2022/08/10 15:17:08;;;;;;;14.43;7.25;;;;;;;;;;3369050;42;20522;-58
2022/08/10 15:19:42;;;;;;;13.82;7.13;;;;;;;;;;3369527;42;20566;-59
2022/08/10 15:22:14;;;;;;;12.68;7.00;;;;;;;;;;3362400;42;20109;-59
2022/08/10 15:25:03;;;;;;;12.55;7.40;;;;;;;;;;3361862;42;20217;-59
2022/08/10 15:27:37;;;;;;;11.77;6.80;;;;;;;;;;3364307;42;20569;-57
2022/08/10 15:30:10;;;;;;;13.10;6.88;;;;;;;;;;3369082;42;20141;-58